Bowmansville, New York
Current Conditions -  °F | °C
As of 7:54 PM on Wednesday 22 Oct 2014 (Local Time) from KBUF Reporting Station
Broken Clouds Broken Clouds  
Wind Chill:   Ceiling: 3200
Heat Index:   Visibility: 10mi
Dew Point:   Wind: 3mph
Humidity: 77%   Direction: 290°WNW
Pressure: 30.21"   Gusts: NA
Location:  42.94°N, 78.68°W
Report Text: KBUF 222354Z 29003KT 10SM BKN032 BKN055 08/04 A3021 RMK AO2 SLP234 T00830044 10083 20078 58000
Loading
Personal Weather Stations






























Interactive Weather Map
Tropical Storm Tracking
New forecast layout! Learn more

10-Day Weather Forecast

Advertisements
Track Severe Weather on mobile